Springfield Branson National Airport
KSGF : rendu visible

Aérodrome :











RETROUVEZ-NOUS SUR...

 
LOGIN :

S'inscrire | Disclaimer

   EN    FR    IT 

 









Légende :    VFR   VFR Marginal   IFR   IFR Intensif   IFR Très Intensif
Visi : 
Plafond : 
>= 8 km
>= 3000ft
5 à 8 km
1000 à 3000 ft
1500m à 5 km
500 à 1000 ft
800 à 1500m
200 à 500 ft
< 800m
< 200 ft
Symboles :   Orages  Brouillard  Fortes neiges  Fortes précipitations  Vent > 20 kt






- Altitude de l'aérodrome : 1268 ft
- Code IATA : SGF


KSGF - Springfield Branson National

DERNIER METAR :
  • 281152Z 03006KT 2SM BR OVC002 M01/M01 A3005 RMK AO2 SLP183 7//// I1000 I6000 T10111011 10000 21011 53006

METARs EXPIRÉS :
  • 281141Z 04008KT 1 1/2SM BR OVC002 M01/M01 A3004 RMK AO2 I1000 T10111011
  • 281121Z 03007KT 2 1/2SM BR OVC002 M01/M01 A3004 RMK AO2 T10111011
  • 281108Z 05008KT 3SM BR OVC002 M01/M01 A3004 RMK AO2 T10111011
  • 281052Z 04009KT 1 1/2SM BR OVC002 M01/M01 A3003 RMK AO2 SLP174 T10061011
  • 281049Z 04008KT 1 3/4SM BR OVC003 M01/M01 A3003 RMK AO2
  • 280952Z 04011KT 5SM BR OVC003 M01/M01 A3002 RMK AO2 SLP169 T10111011

TAF KSGF
Valide du 28 à 12h jusqu'au 29 à 12h UTC


281157Z 2812/2912 05007KT 2SM BR OVC003
FM281900 07007KT P6SM OVC011
FM290100 06009KT 2SM -SNRA OVC006
FM290700 05006KT 1SM -SN OVC003



MET'MAP, la Météo Aéronautique d'un coup d'oeil ! - Copyright ORBIFLY Décembre 2007 - Disclaimer

ORBIFLY MET'MAP TEAM :

Programmation & Développement : Alexandra Zaïnal
Sur une idée originale de : Baudouin d'Aumeries
Assistance à la programmation : Marc-Olivier Méhu
Soutien technique & logistique : Manuel Goepfert

Contact : metmap@orbifly.com




SOURCES & CREDITS :

   NOAA       Earth
Advisory